sim
Sign-in with your pilot id or email,
or register
Callsign
Passwort

Schedule Details

Flight Number: DLH2211 (2)
Departure: Hamburg Airport (EDDH) at 09:15
Arrival: Munich Airport (EDDM) at 10:35
Route: Lufthansa Passenger Schedule. Enter filed route here before submitting Pirep.

Weather Information
Getting current METAR information for EDDH 181220Z 10006KT 070V130 CAVOK 18/03 Q1029 NOSIG
Getting current METAR information for EDDM 181220Z 09012KT 040V120 CAVOK 19/09 Q1024 NOSIG

Schedule Frequency

Route Map